Map

Track Data

SID SEASON NUMBER BASIN SUBBASIN NAME ISO_TIME NATURE LAT LON WMO_WIND WMO_PRES WMO_AGENCY TRACK_TYPE DIST2LAND LANDFALL IFLAG USA_AGENCY USA_ATCF_ID USA_LAT USA_LON USA_RECORD USA_STATUS USA_WIND USA_PRES USA_SSHS USA_R34_NE USA_R34_SE USA_R34_SW USA_R34_NW USA_R50_NE USA_R50_SE USA_R50_SW USA_R50_NW USA_R64_NE USA_R64_SE USA_R64_SW USA_R64_NW USA_POCI USA_ROCI USA_RMW USA_EYE TOKYO_LAT TOKYO_LON TOKYO_GRADE TOKYO_WIND TOKYO_PRES TOKYO_R50_DIR TOKYO_R50_LONG TOKYO_R50_SHORT TOKYO_R30_DIR TOKYO_R30_LONG TOKYO_R30_SHORT TOKYO_LAND CMA_LAT CMA_LON CMA_CAT CMA_WIND CMA_PRES HKO_LAT HKO_LON HKO_CAT HKO_WIND HKO_PRES NEWDELHI_LAT NEWDELHI_LON NEWDELHI_GRADE NEWDELHI_WIND NEWDELHI_PRES NEWDELHI_CI NEWDELHI_DP NEWDELHI_POCI REUNION_LAT REUNION_LON REUNION_TYPE REUNION_WIND REUNION_PRES REUNION_TNUM REUNION_CI REUNION_RMW REUNION_R34_NE REUNION_R34_SE REUNION_R34_SW REUNION_R34_NW REUNION_R50_NE REUNION_R50_SE REUNION_R50_SW REUNION_R50_NW REUNION_R64_NE REUNION_R64_SE REUNION_R64_SW REUNION_R64_NW BOM_LAT BOM_LON BOM_TYPE BOM_WIND BOM_PRES BOM_TNUM BOM_CI BOM_RMW BOM_R34_NE BOM_R34_SE BOM_R34_SW BOM_R34_NW BOM_R50_NE BOM_R50_SE BOM_R50_SW BOM_R50_NW BOM_R64_NE BOM_R64_SE BOM_R64_SW BOM_R64_NW BOM_ROCI BOM_POCI BOM_EYE BOM_POS_METHOD BOM_PRES_METHOD NADI_LAT NADI_LON NADI_CAT NADI_WIND NADI_PRES WELLINGTON_LAT WELLINGTON_LON WELLINGTON_WIND WELLINGTON_PRES DS824_LAT DS824_LON DS824_STAGE DS824_WIND DS824_PRES TD9636_LAT TD9636_LON TD9636_STAGE TD9636_WIND TD9636_PRES TD9635_LAT TD9635_LON TD9635_WIND TD9635_PRES TD9635_ROCI NEUMANN_LAT NEUMANN_LON NEUMANN_CLASS NEUMANN_WIND NEUMANN_PRES MLC_LAT MLC_LON MLC_CLASS MLC_WIND MLC_PRES USA_GUST BOM_GUST BOM_GUST_PER REUNION_GUST REUNION_GUST_PER USA_SEAHGT USA_SEARAD_NE USA_SEARAD_SE USA_SEARAD_SW USA_SEARAD_NW STORM_SPEED STORM_DIR
1985136N07129 1985 37 WP MM GAY 1985-05-16 00:00:00 NR 6.50000 128.500 main 228 228 __________O___ -1 6.50000 128.500 0 4 44
1985136N07129 1985 37 WP MM GAY 1985-05-16 03:00:00 NR 6.62659 128.627 main 234 234 __________P___ -1 6.62659 128.627 0 4 45
1985136N07129 1985 37 WP MM GAY 1985-05-16 06:00:00 NR 6.75253 128.752 main 249 249 __________P___ -1 6.75253 128.752 0 4 45
1985136N07129 1985 37 WP MM GAY 1985-05-16 09:00:00 NR 6.87721 128.877 main 257 257 __________P___ -1 6.87721 128.877 0 4 45
1985136N07129 1985 37 WP MM GAY 1985-05-16 12:00:00 NR 7.00000 129.000 main 267 267 __________O___ -1 7.00000 129.000 0 3 45
1985136N07129 1985 37 WP MM GAY 1985-05-16 15:00:00 NR 7.12092 129.121 main 276 276 __________P___ -1 7.12092 129.121 0 3 45
1985136N07129 1985 37 WP MM GAY 1985-05-16 18:00:00 NR 7.24247 129.243 main 287 287 __________P___ -1 7.24247 129.243 0 3 45
1985136N07129 1985 37 WP MM GAY 1985-05-16 21:00:00 NR 7.36779 129.368 main 309 309 __________P___ -1 7.36779 129.368 0 4 45
1985136N07129 1985 37 WP MM GAY 1985-05-17 00:00:00 NR 7.50000 129.500 main 320 320 __________O___ -1 7.50000 129.500 0 4 46
1985136N07129 1985 37 WP MM GAY 1985-05-17 03:00:00 NR 7.63876 129.647 main 330 330 __________P___ -1 7.63876 129.647 0 4 46
1985136N07129 1985 37 WP MM GAY 1985-05-17 06:00:00 NR 7.78501 129.800 main 353 353 __________P___ -1 7.78501 129.800 0 4 45
1985136N07129 1985 37 WP MM GAY 1985-05-17 09:00:00 NR 7.93876 129.953 main 375 375 __________P___ -1 7.93876 129.953 0 4 43
1985136N07129 1985 37 WP MM GAY 1985-05-17 12:00:00 NR 8.10000 130.100 main 388 388 __________O___ -1 8.10000 130.100 0 4 39
1985136N07129 1985 37 WP MM GAY 1985-05-17 15:00:00 NR 8.28405 130.236 main 402 402 __________P___ -1 8.28405 130.236 0 5 35
1985136N07129 1985 37 WP MM GAY 1985-05-17 18:00:00 NR 8.47248 130.365 main 428 428 __________P___ -1 8.47248 130.365 0 4 34
1985136N07129 1985 37 WP MM GAY 1985-05-17 21:00:00 NR 8.64968 130.486 main 441 441 __________P___ -1 8.64968 130.486 0 4 35
1985136N07129 1985 37 WP MM GAY 1985-05-18 00:00:00 NR 8.80000 130.600 main 457 457 __________O___ -1 8.80000 130.600 0 3 42
1985136N07129 1985 37 WP MM GAY 1985-05-18 03:00:00 NR 8.89560 130.707 main 471 471 __________P___ -1 8.89560 130.707 0 3 51
1985136N07129 1985 37 WP MM GAY 1985-05-18 06:00:00 NR 8.96497 130.808 main 484 484 __________P___ -1 8.96497 130.808 0 2 56
1985136N07129 1985 37 WP MM GAY 1985-05-18 09:00:00 NR 9.02686 130.904 main 495 484 __________P___ -1 9.02686 130.904 0 1 346
1985136N07129 1985 37 WP MM GAY 1985-05-18 12:00:00 TS 9.08000 130.760 main 488 477 __O_______O___ -1 9.00000 129.800 0 17 1006 9.10000 131.000 1 2 322
1985136N07129 1985 37 WP MM GAY 1985-05-18 15:00:00 TS 9.20854 130.761 main 491 491 __P_______P___ -1 9.24502 130.092 0 17 1006 9.19030 131.096 1 3 16
1985136N07129 1985 37 WP MM GAY 1985-05-18 18:00:00 TS 9.38428 130.853 main 509 509 __O_______P___ -1 9.50000 130.400 0 17 1006 9.29748 131.193 1 5 32
1985136N07129 1985 37 WP MM GAY 1985-05-18 21:00:00 TS 9.59797 131.008 main 524 524 __P_______P___ -1 9.76502 130.722 0 18 1005 9.43092 131.293 1 5 39
1985136N07129 1985 37 WP MM GAY 1985-05-19 00:00:00 TS 9.80000 131.200 main 549 549 __O_______O___ -1 10.0000 131.000 0 19 1005 9.60000 131.400 1 5 41
1985136N07129 1985 37 WP MM GAY 1985-05-19 03:00:00 TS 9.98780 131.352 main 575 575 __P_______P___ -1 10.1574 131.165 0 19 1005 9.81816 131.538 1 5 37
1985136N07129 1985 37 WP MM GAY 1985-05-19 06:00:00 TS 10.1850 131.490 main 591 591 __O_______P___ -1 10.3000 131.300 0 19 1005 10.0701 131.680 1 5 35
1985136N07129 1985 37 WP MM GAY 1985-05-19 09:00:00 TS 10.4072 131.646 main 607 607 __P_______P___ -1 10.4775 131.485 0 19 1005 10.3369 131.807 1 6 33
1985136N07129 1985 37 WP MM GAY 1985-05-19 12:00:00 TS 10.6500 131.800 main 636 633 __O_______O___ -1 10.7000 131.700 0 19 1005 10.6000 131.900 1 6 31
1985136N07129 1985 37 WP MM GAY 1985-05-19 15:00:00 TS 10.9181 131.952 main 663 663 __P_______P___ -1 11.0001 131.972 0 19 1005 10.8362 131.932 1 6 26
1985136N07129 1985 37 WP MM GAY 1985-05-19 18:00:00 TS 11.1825 132.065 main 683 683 __O_______P___ -1 11.3000 132.200 0 19 1005 11.0650 131.930 1 5 16
1985136N07129 1985 37 WP MM GAY 1985-05-19 21:00:00 TS 11.3968 132.093 main 689 689 __P_______P___ -1 11.5075 132.273 0 21 1003 11.2862 131.913 1 5 1
1985136N07129 1985 37 WP MM GAY 1985-05-20 00:00:00 TS 11.6300 132.070 1004 tokyo main 690 690 OOO_______O___ jtwc_wp WP031985 11.5000 131.900 30 -1 12.0000 132.000 2 1004 0 0 0 11.7000 132.300 1 23 1002 11.5000 131.900 1 30 5 3
1985136N07129 1985 37 WP MM GAY 1985-05-20 03:00:00 TS 11.8628 132.100 main 694 694 PPP_______P___ WP031985 11.7000 131.962 30 -1 12.1625 132.000 2 1003 0 0 11.9500 132.400 1 23 1002 11.7072 131.918 1 30 5 8
1985136N07129 1985 37 WP MM GAY 1985-05-20 06:00:00 TS 12.0736 132.126 1002 tokyo main 697 697 OOO_______P___ jtwc_wp WP031985 11.9000 132.000 30 -1 12.3000 132.000 2 1002 0 0 0 12.2000 132.500 1 23 1002 11.9075 131.942 1 30 4 5
1985136N07129 1985 37 WP MM GAY 1985-05-20 09:00:00 TS 12.2529 132.138 main 701 701 PPP_______P___ WP031985 12.1000 132.000 30 -1 12.4000 132.000 2 1002 0 0 12.4075 132.580 1 23 1002 12.1041 131.971 1 30 4 2
1985136N07129 1985 37 WP MM GAY 1985-05-20 12:00:00 TS 12.4250 132.150 1002 tokyo main 714 704 OOO_______O___ jtwc_wp WP031985 12.3000 132.000 30 -1 12.5000 132.000 2 1002 0 0 0 12.6000 132.600 1 23 1002 12.3000 132.000 1 30 4 4
1985136N07129 1985 37 WP MM GAY 1985-05-20 15:00:00 TS 12.6105 132.147 main 709 709 PPP_______P___ WP031985 12.5000 132.050 30 -1 12.6425 131.993 2 1001 0 0 12.8075 132.515 1 26 1001 12.4919 132.029 1 31 4 0
1985136N07129 1985 37 WP MM GAY 1985-05-20 18:00:00 TS 12.7963 132.139 1000 tokyo main 714 714 OOO_______P___ jtwc_wp WP031985 12.7000 132.100 30 -1 12.8000 132.000 2 1000 0 0 0 13.0000 132.400 1 29 1000 12.6850 132.057 1 32 4 357
1985136N07129 1985 37 WP MM GAY 1985-05-20 21:00:00 TS 12.9639 132.144 main 721 721 PPP_______P___ WP031985 12.8925 132.108 32 -1 12.9275 132.043 2 999 0 0 13.1500 132.342 1 29 1000 12.8856 132.082 1 33 4 4
1985136N07129 1985 37 WP MM GAY 1985-05-21 00:00:00 TS 13.1471 132.141 40 998 tokyo main 723 723 OOOO______O___ jtwc_wp WP031985 13.1000 132.100 35 0 13.1000 132.100 3 40 998 0 9 60 60 0 13.3000 132.300 1 29 1000 13.1000 132.000 TD 25 1002 13.1000 132.100 2 35 4 359
1985136N07129 1985 37 WP MM GAY 1985-05-21 03:00:00 TS 13.3900 132.142 main 728 728 PPPP______P___ WP031985 13.3425 132.100 35 0 13.3850 132.172 3 42 998 0 9 65 65 13.4850 132.257 1 29 999 13.3975 132.007 TD 27 1001 13.3437 132.107 2 35 5 358
1985136N07129 1985 37 WP MM GAY 1985-05-21 06:00:00 TS 13.6579 132.128 45 998 tokyo main 735 735 OOOO______P___ jtwc_wp WP031985 13.6000 132.100 35 0 13.7000 132.200 3 45 998 0 9 70 70 0 13.7000 132.200 1 29 998 13.7000 132.000 TD 30 1000 13.6000 132.108 2 35 5 354
1985136N07129 1985 37 WP MM GAY 1985-05-21 09:00:00 TS 13.9228 132.078 main 740 735 PPPP______P___ WP031985 13.8575 132.100 35 0 13.9575 132.123 3 45 994 0 9 82 82 13.9350 132.100 1 33 996 14.0075 131.965 TD 30 1000 13.8563 132.104 2 35 5 349
1985136N07129 1985 37 WP MM GAY 1985-05-21 12:00:00 TS 14.1800 132.020 45 990 tokyo main 738 738 OOOO______O___ jtwc_wp WP031985 14.1000 132.100 35 0 14.2000 132.000 3 45 990 0 9 95 95 0 14.2000 132.000 2 38 995 14.3000 131.900 TD 30 1000 14.1000 132.100 2 35 5 349
1985136N07129 1985 37 WP MM GAY 1985-05-21 15:00:00 TS 14.4180 131.976 main 745 742 PPPP______P___ WP031985 14.3075 132.100 37 0 14.4425 131.900 3 45 990 0 9 95 95 14.4925 131.950 2 43 992 14.5575 131.800 TD 30 999 14.2900 132.128 2 37 5 349
1985136N07129 1985 37 WP MM GAY 1985-05-21 18:00:00 TS 14.6540 131.930 45 990 tokyo main 746 746 OOOO______P___ jtwc_wp WP031985 14.5000 132.100 40 0 14.7000 131.800 3 45 990 0 9 95 95 0 14.8000 131.900 3 48 990 14.8000 131.700 TD 30 999 14.4699 132.152 2 40 5 349
1985136N07129 1985 37 WP MM GAY 1985-05-21 21:00:00 TS 14.8895 131.883 main 755 749 PPPP______P___ WP031985 14.6775 132.122 42 0 14.9625 131.692 3 45 990 0 9 97 97 15.1000 131.800 3 48 990 15.0425 131.650 TD 32 998 14.6649 132.150 2 42 5 348
1985136N07129 1985 37 WP MM GAY 1985-05-22 00:00:00 TS 15.1600 131.820 45 990 tokyo main 759 759 OOOO______O___ jtwc_wp WP031985 14.9000 132.100 45 0 15.3000 131.600 3 45 990 0 9 100 100 0 15.4000 131.700 3 48 990 15.3000 131.600 TS 35 998 14.9000 132.100 2 45 6 347
1985136N07129 1985 37 WP MM GAY 1985-05-22 03:00:00 TS 15.5060 131.737 main 764 764 PPPP______P___ WP031985 15.2275 131.980 47 0 15.8300 131.550 3 45 990 0 9 100 100 15.6925 131.657 3 48 990 15.5775 131.500 TS 35 998 15.2028 131.996 2 46 7 345
1985136N07129 1985 37 WP MM GAY 1985-05-22 06:00:00 TS 15.8695 131.628 45 990 tokyo main 777 777 OOOO______P___ jtwc_wp WP031985 15.6000 131.800 50 0 16.3000 131.500 3 45 990 0 9 100 100 0 16.0000 131.600 3 48 990 15.9000 131.400 TS 35 998 15.5474 131.840 2 47 7 342
1985136N07129 1985 37 WP MM GAY 1985-05-22 09:00:00 TS 16.1866 131.503 main 786 784 PPPP______P___ WP031985 15.9350 131.622 50 0 16.4375 131.415 3 45 990 0 9 100 100 16.3500 131.480 3 48 990 16.2925 131.357 TS 37 997 15.9183 131.639 2 48 7 336
1985136N07129 1985 37 WP MM GAY 1985-05-22 12:00:00 TS 16.5000 131.340 45 990 tokyo main 788 788 OOOO______O___ jtwc_wp WP031985 16.3000 131.400 50 0 16.5000 131.300 3 45 990 0 9 100 100 0 16.7000 131.300 3 48 990 16.7000 131.300 TS 40 997 16.3000 131.400 2 50 8 331
1985136N07129 1985 37 WP MM GAY 1985-05-22 15:00:00 TS 16.8415 131.130 main 788 783 PPPP______P___ WP031985 16.7575 131.115 52 0 16.7049 131.180 3 45 990 0 9 100 100 17.0001 131.050 3 48 990 17.0650 131.180 TS 42 995 16.6802 131.124 2 53 8 328
1985136N07129 1985 37 WP MM GAY 1985-05-22 18:00:00 TS 17.1931 130.883 45 990 tokyo main 788 776 OOOO______P___ jtwc_wp WP031985 17.2000 130.800 55 0 17.0000 131.000 3 45 990 0 9 100 100 0 17.3000 130.800 3 48 990 17.4000 131.000 TS 45 994 17.0653 130.815 2 57 9 325
1985136N07129 1985 37 WP MM GAY 1985-05-22 21:00:00 TS 17.5400 130.627 main 776 776 PPPP______P___ WP031985 17.5075 130.500 60 0 17.3775 130.723 3 47 987 0 9 100 100 17.6574 130.650 3 53 985 17.7150 130.765 TS 50 990 17.4427 130.499 2 61 9 324
1985136N07129 1985 37 WP MM GAY 1985-05-23 00:00:00 TS 17.8800 130.360 50 985 tokyo main 782 769 OOOO______O___ jtwc_wp WP031985 17.8000 130.200 65 1 17.8000 130.400 4 50 985 0 9 100 100 0 18.0000 130.500 3 58 980 18.0000 130.500 STS 55 987 17.8000 130.200 3 65 8 322
1985136N07129 1985 37 WP MM GAY 1985-05-23 03:00:00 TS 18.2092 130.086 main 776 772 PPPP______P___ WP031985 18.2150 129.878 65 1 18.2225 130.085 4 52 982 0 9 112 112 18.2575 130.272 3 58 980 18.2499 130.257 STS 60 983 18.1011 129.937 3 66 8 321
1985136N07129 1985 37 WP MM GAY 1985-05-23 06:00:00 TS 18.5170 129.819 55 980 tokyo main 772 770 OOOO______P___ jtwc_wp WP031985 18.6000 129.600 65 1 18.6000 129.800 4 55 980 9 30 30 9 125 125 0 18.5000 130.000 3 58 980 18.5000 130.000 T 65 980 18.3849 129.697 3 67 8 320
1985136N07129 1985 37 WP MM GAY 1985-05-23 09:00:00 TS 18.7852 129.584 main 770 750 PPPP______P___ WP031985 18.8149 129.435 67 1 18.8574 129.600 4 60 975 9 40 40 9 125 125 18.7925 129.700 3 63 975 18.7850 129.700 T 67 975 18.6762 129.484 3 68 7 321
1985136N07129 1985 37 WP MM GAY 1985-05-23 12:00:00 TS 19.0600 129.360 65 970 tokyo main 751 722 OOOO______O___ jtwc_wp WP031985 19.0000 129.300 70 1 19.1000 129.400 5 65 970 9 50 50 9 125 125 0 19.1000 129.400 4 68 970 19.1000 129.400 T 70 970 19.0000 129.300 4 70 8 322
1985136N07129 1985 37 WP MM GAY 1985-05-23 15:00:00 TS 19.3768 129.093 main 724 706 PPPP______P___ WP031985 19.2476 129.085 75 1 19.4352 129.070 5 65 970 9 50 50 9 125 125 19.3850 129.113 4 72 965 19.4275 129.120 T 72 965 19.3889 129.078 4 75 8 326
1985136N07129 1985 37 WP MM GAY 1985-05-23 18:00:00 TS 19.7424 128.879 65 970 tokyo main 708 700 OOOO______P___ jtwc_wp WP031985 19.6000 128.900 80 1 19.8000 128.800 5 65 970 9 50 50 9 125 125 0 19.7000 128.900 4 77 960 19.8000 128.900 T 75 960 19.8122 128.894 4 80 9 339
1985136N07129 1985 37 WP MM GAY 1985-05-23 21:00:00 TS 20.1643 128.767 main 711 711 PPPP______P___ WP031985 20.1349 128.790 85 2 20.1199 128.732 5 70 962 9 55 55 9 137 137 20.0699 128.790 4 77 958 20.2424 128.733 T 77 957 20.2544 128.788 4 85 9 354
1985136N07129 1985 37 WP MM GAY 1985-05-24 00:00:00 TS 20.6200 128.780 75 955 tokyo main 724 724 OOOO______O___ jtwc_wp WP031985 20.7000 128.800 90 2 20.5000 128.800 5 75 955 9 60 60 9 150 150 0 20.5000 128.800 4 77 956 20.7000 128.700 T 80 955 20.7000 128.800 4 90 9 7
1985136N07129 1985 37 WP MM GAY 1985-05-24 03:00:00 TS 21.0691 128.885 main 753 753 PPPP______P___ WP031985 21.1149 128.933 95 2 21.0422 128.868 5 77 952 9 65 65 9 162 162 20.9923 128.868 4 82 953 21.0998 128.810 T 80 952 21.0964 128.946 4 92 10 21
1985136N07129 1985 37 WP MM GAY 1985-05-24 06:00:00 TS 21.5194 129.143 80 950 tokyo main 790 790 OOOO______P___ jtwc_wp WP031985 21.5000 129.200 100 3 21.6000 129.100 5 80 950 9 70 70 9 175 175 0 21.5000 129.100 5 87 950 21.5000 129.100 T 80 950 21.4972 129.213 4 95 11 36
1985136N07129 1985 37 WP MM GAY 1985-05-24 09:00:00 TS 21.9521 129.576 main 834 834 PPPP______P___ WP031985 21.9351 129.570 100 3 22.0080 129.612 5 80 952 9 70 70 9 175 175 21.9653 129.562 5 87 952 21.9277 129.562 T 77 955 21.9244 129.575 4 97 12 45
1985136N07129 1985 37 WP MM GAY 1985-05-24 12:00:00 TS 22.4000 130.080 80 955 tokyo main 868 864 OOOO______O___ jtwc_wp WP031985 22.4000 130.000 100 3 22.4000 130.200 5 80 955 9 70 70 9 175 175 0 22.4000 130.100 5 87 955 22.4000 130.100 T 75 960 22.4000 130.000 4 100 12 42
1985136N07129 1985 37 WP MM GAY 1985-05-24 15:00:00 TS 22.8693 130.485 main 893 848 PPPP______P___ WP031985 22.8622 130.371 97 3 22.8547 130.616 5 80 957 9 70 70 9 175 175 22.7696 130.494 5 82 960 22.9272 130.543 T 72 962 22.9327 130.400 4 97 13 37
1985136N07129 1985 37 WP MM GAY 1985-05-24 18:00:00 TS 23.4032 130.912 80 960 tokyo main 848 784 OOOO______P___ jtwc_wp WP031985 23.4000 130.800 95 2 23.4000 131.000 5 80 960 9 70 70 9 175 175 0 23.2000 130.900 4 77 965 23.5000 131.000 T 70 965 23.5162 130.861 4 95 15 36
1985136N07129 1985 37 WP MM GAY 1985-05-24 21:00:00 TS 24.0357 131.419 main 784 714 PPPP______P___ WP031985 24.0849 131.355 92 2 24.0847 131.420 5 80 962 9 70 70 9 175 175 23.7823 131.406 4 72 967 24.0848 131.521 T 70 967 24.1416 131.391 4 92 17 37
1985136N07129 1985 37 WP MM GAY 1985-05-25 00:00:00 TS 24.7200 132.000 80 965 tokyo main 714 660 OOOO______O___ jtwc_wp WP031985 24.8000 132.000 90 2 24.8000 131.900 5 80 965 9 70 70 9 175 175 0 24.5000 132.000 4 68 970 24.7000 132.100 T 70 970 24.8000 132.000 4 90 17 39
1985136N07129 1985 37 WP MM GAY 1985-05-25 03:00:00 TS 25.3843 132.634 main 652 609 PPPP______P___ WP031985 25.3845 132.664 85 2 25.3695 132.442 5 80 967 9 70 70 9 175 175 25.3495 132.648 4 68 971 25.3423 132.728 T 70 972 25.4756 132.688 4 86 18 42
1985136N07129 1985 37 WP MM GAY 1985-05-25 06:00:00 TS 26.0756 133.351 80 970 tokyo main 607 573 OOOO______P___ jtwc_wp WP031985 26.0000 133.400 80 1 26.0000 133.100 5 80 970 9 70 70 9 175 175 0 26.2000 133.400 4 68 972 26.0000 133.400 T 70 975 26.1778 133.453 4 82 20 44
1985136N07129 1985 37 WP MM GAY 1985-05-25 09:00:00 TS 26.8089 134.141 main 573 551 PPPP______P___ WP031985 26.7849 134.227 77 1 26.8771 133.882 5 75 972 9 65 65 9 187 175 26.8726 134.279 4 63 976 26.6190 134.050 T 67 977 26.8910 134.267 4 78 21 45
1985136N07129 1985 37 WP MM GAY 1985-05-25 12:00:00 TS 27.5600 135.000 70 975 tokyo main 548 546 OOOO______O___ jtwc_wp WP031985 27.6000 135.100 75 1 27.8000 134.800 5 70 975 9 60 60 3 200 175 0 27.5000 135.200 3 58 980 27.3000 134.800 T 65 980 27.6000 135.100 4 75 22 46
1985136N07129 1985 37 WP MM GAY 1985-05-25 15:00:00 TS 28.3263 135.915 main 554 498 PPPP______P___ WP031985 28.3221 135.959 70 1 28.6029 135.850 5 65 977 9 55 55 3 200 175 28.1770 136.066 3 53 980 28.1506 135.776 T 62 980 28.3790 135.923 4 71 22 47
1985136N07129 1985 37 WP MM GAY 1985-05-25 18:00:00 TS 29.0673 136.832 60 980 tokyo main 489 439 OOOO______P___ jtwc_wp WP031985 29.0000 136.800 65 1 29.3000 136.900 4 60 980 9 50 50 3 200 175 0 28.9000 136.900 3 48 980 29.0000 136.800 STS 60 980 29.1367 136.759 4 67 21 47
1985136N07129 1985 37 WP MM GAY 1985-05-25 21:00:00 TS 29.7930 137.701 main 439 418 PPPP______P___ WP031985 29.7246 137.622 62 0 29.9398 137.848 4 57 982 9 50 50 3 200 162 29.7674 137.744 3 48 982 29.7319 137.703 STS 57 981 29.8011 137.591 4 63 19 48
1985136N07129 1985 37 WP MM GAY 1985-05-26 00:00:00 MX 30.3632 138.484 55 985 tokyo main 420 417 OOOO______O___ jtwc_wp WP031985 30.3000 138.400 60 0 30.4000 138.600 4 55 985 9 50 50 3 200 150 0 30.5000 138.500 9 48 985 30.3000 138.500 STS 55 983 30.3000 138.400 2 60 15 54
1985136N07129 1985 37 WP MM GAY 1985-05-26 03:00:00 MX 30.6855 139.127 main 432 426 PPPP______P___ WP031985 30.5881 139.118 57 0 30.6463 139.046 4 52 985 9 3 175 125 30.8841 139.081 9 43 987 30.6818 139.196 STS 52 984 30.5787 139.188 2 11 67
1985136N07129 1985 37 WP MM GAY 1985-05-26 06:00:00 MX 30.8096 139.685 50 985 tokyo main 432 432 OOOO______P___ jtwc_wp WP031985 30.7000 139.800 55 0 30.7000 139.400 4 50 985 0 3 150 100 0 31.0000 139.600 9 38 990 30.9000 139.800 STS 50 985 30.6886 139.939 2 10 83
1985136N07129 1985 37 WP MM GAY 1985-05-26 09:00:00 MX 30.8030 140.270 main 446 446 _PPP______P___ WP031985 -1 30.6600 139.928 4 988 0 3 30.9598 140.193 9 33 992 31.0231 140.360 STS 45 987 30.6792 140.645 2 10 98
1985136N07129 1985 37 WP MM GAY 1985-05-26 12:00:00 ET 30.6692 140.869 992 tokyo main 477 477 _OOO______O___ -1 30.5000 140.500 6 992 0 0 0 30.8000 140.800 9 29 995 31.1000 140.900 TS 40 990 30.6000 141.300 5 11 109
1985136N07129 1985 37 WP MM GAY 1985-05-26 15:00:00 ET 30.4651 141.430 main 510 510 _PP_______P___ -1 30.2338 140.991 6 993 0 0 30.6344 141.378 9 29 996 TS 30.5271 141.922 5 11 110
1985136N07129 1985 37 WP MM GAY 1985-05-26 18:00:00 ET 30.3003 142.031 994 tokyo main 549 549 _OO_______P___ -1 30.0000 141.600 6 994 0 0 0 30.5000 142.000 9 29 997 30.4009 142.492 5 12 102
1985136N07129 1985 37 WP MM GAY 1985-05-26 21:00:00 ET 30.2226 142.754 main 590 590 _PP_______P___ -1 29.9635 142.519 6 995 0 0 30.4549 142.728 9 29 997 30.2494 143.016 5 13 96
1985136N07129 1985 37 WP MM GAY 1985-05-27 00:00:00 ET 30.1727 143.500 996 tokyo main 622 622 _OO_______O___ -1 30.0000 143.500 6 996 0 0 0 30.5000 143.500 9 29 997 30.1000 143.500 5 12 95
1985136N07129 1985 37 WP MM GAY 1985-05-27 03:00:00 ET 30.1233 144.132 main 664 664 _PP_______P___ -1 29.9983 144.243 6 996 0 0 30.6281 144.257 9 26 998 29.9958 143.960 5 11 97
1985136N07129 1985 37 WP MM GAY 1985-05-27 06:00:00 ET 30.0438 144.727 996 tokyo main 705 705 _OO_______P___ -1 30.0000 145.000 6 996 0 0 0 30.8000 145.000 9 23 1000 29.8987 144.386 5 11 102
1985136N07129 1985 37 WP MM GAY 1985-05-27 09:00:00 ET 29.9011 145.379 main 753 753 _P________P___ -1 30.0000 145.963 6 997 0 0 9 29.8022 144.795 5 12 99
1985136N07129 1985 37 WP MM GAY 1985-05-27 12:00:00 ET 29.8500 146.100 998 tokyo main 795 804 _O________O___ -1 30.0000 147.000 6 998 0 0 0 29.7000 145.200 5 12 96
1985136N07129 1985 37 WP MM GAY 1985-05-27 15:00:00 ET 29.7776 146.789 main 849 849 _P________P___ -1 29.9683 147.964 6 999 0 0 29.5869 145.615 5 14 93
1985136N07129 1985 37 WP MM GAY 1985-05-27 18:00:00 ET 29.7703 147.731 1000 tokyo main 910 910 _O________P___ -1 30.0000 149.000 6 1000 0 0 0 29.4640 146.039 5 19 88
1985136N07129 1985 37 WP MM GAY 1985-05-27 21:00:00 ET 29.8413 148.966 main 1001 1001 _P________P___ -1 30.0949 150.215 6 1001 0 0 29.3341 146.468 5 25 81
1985136N07129 1985 37 WP MM GAY 1985-05-28 00:00:00 ET 30.1600 150.580 1002 tokyo main 1090 1090 _O________O___ -1 30.4000 151.500 6 1002 0 0 0 29.2000 146.900 5 35 69
1985136N07129 1985 37 WP MM GAY 1985-05-28 03:00:00 ET 31.0763 152.747 main 1206 1206 _P____________ -1 31.0763 152.747 6 1003 0 0 5 34 61
1985136N07129 1985 37 WP MM GAY 1985-05-28 06:00:00 ET 31.8000 154.000 1004 tokyo main 1283 1283 _O____________ -1 31.8000 154.000 6 1004 0 0 0 5 24 61
1985136N07129 1985 37 WP MM GAY 1985-05-28 09:00:00 ET 32.2474 155.252 main 1380 1376 _P____________ -1 32.2474 155.252 6 1006 0 0 5 22 72
1985136N07129 1985 37 WP MM GAY 1985-05-28 12:00:00 ET 32.5000 156.500 1008 tokyo main 1475 _O____________ -1 32.5000 156.500 6 1008 0 0 0 22 77

Digital Typhoon Data and Search

About IBTrACS Database

This database is a web-friendly format of International Best Track Archive for Climate Stewardship (IBTrACS), a global best track data archive curated by NOAA dating back to 1842.

Updated: 2021-10-27